KCEU

Oconee County Regional Airport

Clemson, South Carolina, USA
METAR KCEU 201754Z AUTO 11004KT 10SM CLR 31/19 A3016 RMK AO2 SLP200 T03060189 10306 20211 58013
Observed Flight Rules
Sep-20 @ 17:54 UTC (41 minutes ago) Visual Flight Rules
Wind Visibility Clouds
110° at 4 knots 10 miles
  • Clear skies
Temperatures Readings
Current 31°C / 88°F
Dewpoint 19°C / 66°F
Humidity 49%
Altimeter 30.16" Hg
Pressure 1020 hPa
Elevation 268
METAR KCEU 201754Z AUTO 11004KT 10SM CLR 31/19 A3016 RMK AO2 SLP200 T03060189 10306 20211 58013
Observed Flight Rules
Sep-20 @ 17:54 UTC
(41 minutes ago)
VFR
Wind Visibility
110° at 4 knots 10 miles
Clouds
  • Clear skies
Temperature Dewpoint
31°C / 88°F 19°C / 66°F
Humidity Altimeter Pressure
49% 30.16" Hg 1020 hPa